createdAt,value
2019-04-27T00:01:26.550Z,1.10
2019-04-27T00:04:29.946Z,1.30
2019-04-27T00:07:09.337Z,1.10
2019-04-27T00:09:50.188Z,1.23
2019-04-27T00:12:16.477Z,1.00
2019-04-27T00:14:48.403Z,1.10
2019-04-27T00:17:45.757Z,1.23
2019-04-27T00:20:27.593Z,0.80
2019-04-27T00:23:04.671Z,1.03
2019-04-27T00:25:33.774Z,1.20
2019-04-27T00:28:03.518Z,1.40
2019-04-27T00:30:35.667Z,1.40
2019-04-27T00:33:05.408Z,0.83
2019-04-27T00:35:44.926Z,1.10
2019-04-27T00:38:38.773Z,0.90
2019-04-27T00:41:10.181Z,0.97
2019-04-27T00:43:39.117Z,1.20
2019-04-27T00:46:08.229Z,1.00
2019-04-27T00:48:37.335Z,1.00
2019-04-27T00:51:06.582Z,0.97
2019-04-27T00:53:35.597Z,0.90
2019-04-27T00:56:15.238Z,0.90
2019-04-27T00:59:01.521Z,1.07
2019-04-27T01:01:34.123Z,1.00
2019-04-27T01:04:10.570Z,0.90
2019-04-27T01:06:39.565Z,1.00
2019-04-27T01:09:10.629Z,1.23
2019-04-27T01:11:39.816Z,1.13
2019-04-27T01:14:08.836Z,1.10
2019-04-27T01:16:39.183Z,1.00
2019-04-27T01:19:08.490Z,1.40
2019-04-27T01:21:39.641Z,1.50
2019-04-27T01:24:09.014Z,1.23
2019-04-27T01:27:03.342Z,1.50
2019-04-27T01:29:33.168Z,1.53
2019-04-27T01:32:02.341Z,1.53
2019-04-27T01:34:31.338Z,1.47
2019-04-27T01:37:00.666Z,1.90
2019-04-27T01:39:29.581Z,1.60
2019-04-27T01:41:59.081Z,1.57
2019-04-27T01:44:29.579Z,1.90
2019-04-27T01:46:59.892Z,1.33
2019-04-27T01:49:29.622Z,1.87
2019-04-27T01:51:59.475Z,1.90
2019-04-27T01:54:29.420Z,1.43
2019-04-27T01:57:00.662Z,1.10
2019-04-27T01:59:30.017Z,1.77
2019-04-27T02:02:33.589Z,1.40
2019-04-27T02:05:21.570Z,1.50
2019-04-27T02:07:50.661Z,1.37
2019-04-27T02:10:19.640Z,1.40
2019-04-27T02:12:48.725Z,1.23
2019-04-27T02:15:19.170Z,1.40
2019-04-27T02:17:50.696Z,1.50
2019-04-27T02:20:19.727Z,1.60
2019-04-27T02:22:50.783Z,1.30
2019-04-27T02:25:21.142Z,1.73
2019-04-27T02:28:01.723Z,1.50
2019-04-27T02:30:53.206Z,1.30
2019-04-27T02:33:46.647Z,1.97
2019-04-27T02:36:15.468Z,2.23
2019-04-27T02:38:44.642Z,2.00
2019-04-27T02:41:13.626Z,1.83
2019-04-27T02:44:01.754Z,2.10
2019-04-27T02:46:31.652Z,2.17
2019-04-27T02:49:06.207Z,2.13
2019-04-27T02:51:49.387Z,2.23
2019-04-27T02:54:20.213Z,2.40
2019-04-27T02:56:50.063Z,2.27
2019-04-27T02:59:19.921Z,2.07
2019-04-27T03:02:04.333Z,1.83
2019-04-27T03:04:33.328Z,1.90
2019-04-27T03:07:02.235Z,1.43
2019-04-27T03:09:31.842Z,1.67
2019-04-27T03:12:02.031Z,1.73
2019-04-27T03:14:56.104Z,1.53
2019-04-27T03:17:40.510Z,1.50
2019-04-27T03:20:25.903Z,2.13
2019-04-27T03:22:59.875Z,1.87
2019-04-27T03:25:50.663Z,2.13
2019-04-27T03:28:20.296Z,1.80
2019-04-27T03:30:52.033Z,1.40
2019-04-27T03:33:22.425Z,1.27
2019-04-27T03:35:52.597Z,1.70
2019-04-27T03:38:21.694Z,2.10
2019-04-27T03:40:53.050Z,2.00
2019-04-27T03:43:24.535Z,2.37
2019-04-27T03:45:53.927Z,2.40
2019-04-27T03:48:22.990Z,2.57
2019-04-27T03:51:10.534Z,2.40
2019-04-27T03:54:13.810Z,2.80
2019-04-27T03:56:45.544Z,2.47
2019-04-27T03:59:23.761Z,2.87
2019-04-27T04:01:53.010Z,3.10
2019-04-27T04:04:22.026Z,2.60
2019-04-27T04:06:51.310Z,2.80
2019-04-27T04:09:26.084Z,2.57
2019-04-27T04:12:03.469Z,2.73
2019-04-27T04:14:32.311Z,1.90
2019-04-27T04:17:04.079Z,2.53
2019-04-27T04:19:47.965Z,2.50
2019-04-27T04:22:03.826Z,2.47
2019-04-27T04:24:33.026Z,1.90
2019-04-27T04:27:01.970Z,2.10
2019-04-27T04:29:30.967Z,2.47
2019-04-27T04:32:00.631Z,2.57
2019-04-27T04:34:30.013Z,2.23
2019-04-27T04:37:00.504Z,2.60
2019-04-27T04:39:29.866Z,2.47
2019-04-27T04:42:09.960Z,2.00
2019-04-27T04:44:57.452Z,1.90
2019-04-27T04:47:45.631Z,2.30
2019-04-27T04:50:15.409Z,2.20
2019-04-27T04:52:44.681Z,2.57
2019-04-27T04:55:13.676Z,1.60
2019-04-27T04:57:42.664Z,2.20
2019-04-27T05:00:11.853Z,2.03
2019-04-27T05:02:40.854Z,2.10
2019-04-27T05:05:09.961Z,3.00
2019-04-27T05:07:38.951Z,2.27
2019-04-27T05:10:09.030Z,2.50
2019-04-27T05:12:38.732Z,2.40
2019-04-27T05:15:09.152Z,3.07
2019-04-27T05:17:39.767Z,2.17
2019-04-27T05:20:29.484Z,2.30
2019-04-27T05:22:59.368Z,2.07
2019-04-27T05:25:28.849Z,2.30
2019-04-27T05:27:59.544Z,3.07
2019-04-27T05:30:28.717Z,2.23
2019-04-27T05:32:58.572Z,2.07
2019-04-27T05:35:29.653Z,2.60
2019-04-27T05:38:02.410Z,2.57
2019-04-27T05:40:31.572Z,2.20
2019-04-27T05:43:00.725Z,2.57
2019-04-27T05:46:15.858Z,4.83
2019-04-27T05:48:44.765Z,2.80
2019-04-27T05:51:13.696Z,2.73
2019-04-27T05:53:42.618Z,3.40
2019-04-27T05:56:11.529Z,2.90
2019-04-27T05:58:40.542Z,3.13
2019-04-27T06:01:11.357Z,3.63
2019-04-27T06:03:40.085Z,4.30
2019-04-27T06:06:09.656Z,3.90
2019-04-27T06:08:39.259Z,3.83
2019-04-27T06:11:09.468Z,3.50
2019-04-27T06:13:39.207Z,3.27
2019-04-27T06:16:09.425Z,3.73
2019-04-27T06:18:39.176Z,3.67
2019-04-27T06:21:09.795Z,3.67
2019-04-27T06:23:39.142Z,3.83
2019-04-27T06:26:11.681Z,3.53
2019-04-27T06:28:39.901Z,4.17
2019-04-27T06:31:08.991Z,3.90
2019-04-27T06:33:39.193Z,3.77
2019-04-27T06:36:10.042Z,3.90
2019-04-27T06:38:39.449Z,3.00
2019-04-27T06:41:09.967Z,3.50
2019-04-27T06:43:40.600Z,3.17
2019-04-27T06:46:09.777Z,2.90
2019-04-27T06:48:39.455Z,3.00
2019-04-27T06:51:09.700Z,2.87
2019-04-27T06:53:39.456Z,2.97
2019-04-27T06:56:09.089Z,3.03
2019-04-27T06:58:40.494Z,2.90
2019-04-27T07:01:09.499Z,2.73
2019-04-27T07:03:39.602Z,2.80
2019-04-27T07:06:08.945Z,3.17
2019-04-27T07:08:39.913Z,2.70
2019-04-27T07:11:11.455Z,2.57
2019-04-27T07:13:39.414Z,2.37
2019-04-27T07:16:09.647Z,2.73
2019-04-27T07:18:39.674Z,2.67
2019-04-27T07:21:18.291Z,2.60
2019-04-27T07:23:59.061Z,2.73
2019-04-27T07:26:30.229Z,2.80
2019-04-27T07:28:59.744Z,2.60
2019-04-27T07:31:29.484Z,3.27
2019-04-27T07:33:59.690Z,3.40
2019-04-27T07:36:29.092Z,2.23
2019-04-27T07:38:59.839Z,2.03
2019-04-27T07:41:29.266Z,2.17
2019-04-27T07:44:04.829Z,1.90
2019-04-27T07:46:33.749Z,2.43
2019-04-27T07:49:02.692Z,2.10
2019-04-27T07:51:34.307Z,2.53
2019-04-27T07:54:02.357Z,1.80
2019-04-27T07:56:31.270Z,1.60
2019-04-27T07:59:00.200Z,1.53
2019-04-27T08:01:29.448Z,1.13
2019-04-27T08:03:59.059Z,1.80
2019-04-27T08:06:28.921Z,1.57
2019-04-27T08:08:59.325Z,1.40
2019-04-27T08:11:29.227Z,1.90
2019-04-27T08:13:58.810Z,1.67
2019-04-27T08:16:29.094Z,2.27
2019-04-27T08:19:00.003Z,1.80
2019-04-27T08:21:29.200Z,1.90
2019-04-27T08:23:58.718Z,1.37
2019-04-27T08:26:39.406Z,1.47
2019-04-27T08:29:27.532Z,1.60
2019-04-27T08:32:00.538Z,1.23
2019-04-27T08:34:32.490Z,1.40
2019-04-27T08:37:02.472Z,1.30
2019-04-27T08:39:31.602Z,1.00
2019-04-27T08:42:00.691Z,1.53
2019-04-27T08:44:31.806Z,0.97
2019-04-27T08:47:00.514Z,1.30
2019-04-27T08:49:29.748Z,1.10
2019-04-27T08:52:01.370Z,1.10
2019-04-27T08:54:29.473Z,4.67
2019-04-27T08:56:59.690Z,0.90
2019-04-27T08:59:29.681Z,0.93
2019-04-27T09:01:58.914Z,1.00
2019-04-27T09:04:30.027Z,1.10
2019-04-27T09:07:03.341Z,1.50
2019-04-27T09:09:37.569Z,0.80
2019-04-27T09:12:24.379Z,1.47
2019-04-27T09:15:09.999Z,0.70
2019-04-27T09:17:42.829Z,1.40
2019-04-27T09:20:18.632Z,1.37
2019-04-27T09:22:49.233Z,1.50
2019-04-27T09:25:19.307Z,1.20
2019-04-27T09:27:49.250Z,0.70
2019-04-27T09:30:19.071Z,1.23
2019-04-27T09:32:48.217Z,0.80
2019-04-27T09:35:17.434Z,1.43
2019-04-27T09:37:46.376Z,0.90
2019-04-27T09:40:17.049Z,1.03
2019-04-27T09:42:46.447Z,0.80
2019-04-27T09:45:16.336Z,0.80
2019-04-27T09:47:46.810Z,0.80
2019-04-27T09:50:16.326Z,0.97
2019-04-27T09:52:45.923Z,0.60
2019-04-27T09:55:16.330Z,0.50
2019-04-27T09:57:46.481Z,0.57
2019-04-27T10:00:16.153Z,0.50
2019-04-27T10:02:46.582Z,0.70
2019-04-27T10:05:17.417Z,0.50
2019-04-27T10:07:47.894Z,0.40
2019-04-27T10:10:20.307Z,0.30
2019-04-27T10:12:51.767Z,0.40
2019-04-27T10:15:20.825Z,0.50
2019-04-27T10:17:49.678Z,0.40
2019-04-27T10:20:19.879Z,0.47
2019-04-27T10:22:49.172Z,0.33
2019-04-27T10:25:23.624Z,0.63
2019-04-27T10:27:58.714Z,0.40
2019-04-27T10:30:30.013Z,0.40
2019-04-27T10:32:59.037Z,0.30
2019-04-27T10:35:29.306Z,0.40
2019-04-27T10:37:58.347Z,0.30
2019-04-27T10:40:27.335Z,0.40
2019-04-27T10:42:56.361Z,0.40
2019-04-27T10:45:25.409Z,0.30
2019-04-27T10:47:56.174Z,0.60
2019-04-27T10:50:26.565Z,0.20
2019-04-27T10:52:56.784Z,0.40
2019-04-27T10:55:28.390Z,0.40
2019-04-27T10:57:57.824Z,0.47
2019-04-27T11:00:36.776Z,0.40
2019-04-27T11:03:06.622Z,0.30
2019-04-27T11:05:54.937Z,0.50
2019-04-27T11:08:24.034Z,0.30
2019-04-27T11:10:53.057Z,0.47
2019-04-27T11:13:21.999Z,0.40
2019-04-27T11:15:51.031Z,0.40
2019-04-27T11:18:19.974Z,0.60
2019-04-27T11:20:49.226Z,0.40
2019-04-27T11:23:18.240Z,0.30
2019-04-27T11:25:47.565Z,0.50
2019-04-27T11:28:16.429Z,0.40
2019-04-27T11:30:45.365Z,0.40
2019-04-27T11:33:16.068Z,0.40
2019-04-27T11:35:59.678Z,0.60
2019-04-27T11:38:28.883Z,0.57
2019-04-27T11:40:57.875Z,0.50
2019-04-27T11:43:26.724Z,0.77
2019-04-27T11:45:56.057Z,0.60
2019-04-27T11:48:26.303Z,0.80
2019-04-27T11:50:56.055Z,0.77
2019-04-27T11:53:26.197Z,0.77
2019-04-27T11:55:55.484Z,0.80
2019-04-27T11:58:26.410Z,0.57
2019-04-27T12:00:55.501Z,0.50
2019-04-27T12:03:24.541Z,0.70
2019-04-27T12:05:53.672Z,0.50
2019-04-27T12:08:22.681Z,0.60
2019-04-27T12:10:51.603Z,0.90
2019-04-27T12:13:20.781Z,0.70
2019-04-27T12:15:49.769Z,1.00
2019-04-27T12:18:18.953Z,1.20
2019-04-27T12:20:48.195Z,0.80
2019-04-27T12:23:17.386Z,1.40
2019-04-27T12:25:46.414Z,1.17
2019-04-27T12:28:21.294Z,0.80
2019-04-27T12:31:02.280Z,1.27
2019-04-27T12:33:31.347Z,0.73
2019-04-27T12:36:00.445Z,0.80
2019-04-27T12:38:29.435Z,0.80
2019-04-27T12:40:58.353Z,0.97
2019-04-27T12:43:27.681Z,0.80
2019-04-27T12:45:56.766Z,0.90
2019-04-27T12:48:25.753Z,0.70
2019-04-27T12:50:56.295Z,1.23
2019-04-27T12:53:32.037Z,0.70
2019-04-27T12:56:19.394Z,0.50
2019-04-27T12:59:01.890Z,0.50
2019-04-27T13:01:30.843Z,0.57
2019-04-27T13:03:59.765Z,0.80
2019-04-27T13:06:28.873Z,0.50
2019-04-27T13:08:57.806Z,0.80
2019-04-27T13:11:26.866Z,0.50
2019-04-27T13:13:57.519Z,0.30
2019-04-27T13:16:28.869Z,0.53
2019-04-27T13:18:57.586Z,0.40
2019-04-27T13:21:26.621Z,0.60
2019-04-27T13:24:04.151Z,0.30
2019-04-27T13:26:26.333Z,0.30
2019-04-27T13:28:55.277Z,0.50
2019-04-27T13:31:25.760Z,0.30
2019-04-27T13:33:55.735Z,0.30
2019-04-27T13:36:26.440Z,0.30
2019-04-27T13:38:56.002Z,0.47
2019-04-27T13:41:30.302Z,0.20
2019-04-27T13:43:57.403Z,0.30
2019-04-27T13:46:55.963Z,0.30
2019-04-27T13:49:51.189Z,0.40
2019-04-27T13:52:22.758Z,0.10
2019-04-27T13:54:51.820Z,0.17
2019-04-27T13:57:20.825Z,0.20
2019-04-27T13:59:51.500Z,0.10
2019-04-27T14:02:23.325Z,0.20
2019-04-27T14:04:51.145Z,0.30
2019-04-27T14:07:20.494Z,0.30
2019-04-27T14:09:50.536Z,0.33
2019-04-27T14:12:21.618Z,0.33
2019-04-27T14:14:50.853Z,0.43
2019-04-27T14:17:19.851Z,0.50
2019-04-27T14:19:48.846Z,0.43
2019-04-27T14:22:18.290Z,0.50
2019-04-27T14:24:48.755Z,0.50
2019-04-27T14:27:19.065Z,0.80
2019-04-27T14:29:48.971Z,0.30
2019-04-27T14:32:18.873Z,0.30
2019-04-27T14:34:50.026Z,0.30
2019-04-27T14:37:18.929Z,0.93
2019-04-27T14:39:48.058Z,0.77
2019-04-27T14:42:19.138Z,0.40
2019-04-27T14:44:48.935Z,0.50
2019-04-27T14:47:18.863Z,0.73
2019-04-27T14:49:49.113Z,0.40
2019-04-27T14:52:18.855Z,0.50
2019-04-27T14:54:50.547Z,0.50
2019-04-27T14:57:20.413Z,0.40
2019-04-27T14:59:49.888Z,0.30
2019-04-27T15:02:18.836Z,0.30
2019-04-27T15:04:47.941Z,0.43
2019-04-27T15:07:17.173Z,0.40
2019-04-27T15:09:49.558Z,0.30
2019-04-27T15:12:16.890Z,0.30
2019-04-27T15:14:45.887Z,0.23
2019-04-27T15:17:17.594Z,0.40
2019-04-27T15:19:52.678Z,0.47
2019-04-27T15:22:30.027Z,0.37
2019-04-27T15:25:09.306Z,0.77
2019-04-27T15:27:37.670Z,0.50
2019-04-27T15:30:11.534Z,0.40
2019-04-27T15:33:00.372Z,0.50
2019-04-27T15:35:40.569Z,0.40
2019-04-27T15:38:14.028Z,0.30
2019-04-27T15:41:11.589Z,0.30
2019-04-27T15:43:42.052Z,0.63
2019-04-27T15:46:11.002Z,0.50
2019-04-27T15:48:39.910Z,0.40
2019-04-27T15:51:14.775Z,0.30
2019-04-27T15:53:41.592Z,0.20
2019-04-27T15:56:10.222Z,0.40
2019-04-27T15:58:39.201Z,0.40
2019-04-27T16:01:11.315Z,0.30
2019-04-27T16:03:39.819Z,0.30
2019-04-27T16:06:11.873Z,0.30
2019-04-27T16:08:44.938Z,0.30
2019-04-27T16:11:16.666Z,0.30
2019-04-27T16:13:40.978Z,0.40
2019-04-27T16:16:10.304Z,0.40
2019-04-27T16:18:39.360Z,0.20
2019-04-27T16:21:10.770Z,0.30
2019-04-27T16:23:42.739Z,0.20
2019-04-27T16:26:13.732Z,0.40
2019-04-27T16:28:53.713Z,0.20
2019-04-27T16:31:24.852Z,0.97
2019-04-27T16:33:54.057Z,0.50
2019-04-27T16:36:24.628Z,0.40
2019-04-27T16:39:08.130Z,0.30
2019-04-27T16:41:37.322Z,0.30
2019-04-27T16:44:10.470Z,0.40
2019-04-27T16:46:39.493Z,0.27
2019-04-27T16:49:13.964Z,0.30
2019-04-27T16:51:40.330Z,0.30
2019-04-27T16:54:12.814Z,0.40
2019-04-27T16:56:40.201Z,2.93
2019-04-27T16:59:33.939Z,1.80
2019-04-27T17:01:46.269Z,0.67
2019-04-27T17:04:15.025Z,0.40
2019-04-27T17:06:45.879Z,0.50
2019-04-27T17:09:13.158Z,0.23
2019-04-27T17:11:43.615Z,0.30
2019-04-27T17:14:34.811Z,0.50
2019-04-27T17:17:15.861Z,0.80
2019-04-27T17:19:51.584Z,0.50
2019-04-27T17:22:20.189Z,0.80
2019-04-27T17:24:49.442Z,0.50
2019-04-27T17:27:22.837Z,0.70
2019-04-27T17:29:58.292Z,0.40
2019-04-27T17:32:33.373Z,0.47
2019-04-27T17:35:05.048Z,0.40
2019-04-27T17:37:33.724Z,0.70
2019-04-27T17:40:01.942Z,0.60
2019-04-27T17:42:30.954Z,0.60
2019-04-27T17:45:00.584Z,0.97
2019-04-27T17:47:30.051Z,0.50
2019-04-27T17:49:59.528Z,0.50
2019-04-27T17:52:28.577Z,0.30
2019-04-27T17:54:59.006Z,0.50
2019-04-27T17:57:30.193Z,0.60
2019-04-27T18:00:03.170Z,0.40
2019-04-27T18:02:33.762Z,0.80
2019-04-27T18:05:00.818Z,0.87
2019-04-27T18:07:30.168Z,0.90
2019-04-27T18:09:59.393Z,0.80
2019-04-27T18:12:28.623Z,0.83
2019-04-27T18:14:58.127Z,0.53
2019-04-27T18:17:28.731Z,0.70
2019-04-27T18:20:00.989Z,1.20
2019-04-27T18:22:36.607Z,0.50
2019-04-27T18:25:09.591Z,0.97
2019-04-27T18:27:49.884Z,0.50
2019-04-27T18:30:24.361Z,1.57
2019-04-27T18:32:53.546Z,0.60
2019-04-27T18:35:26.275Z,0.67
2019-04-27T18:37:57.523Z,0.50
2019-04-27T18:40:31.846Z,0.60
2019-04-27T18:42:55.021Z,0.50
2019-04-27T18:45:24.035Z,0.80
2019-04-27T18:48:06.726Z,0.57
2019-04-27T18:50:53.518Z,0.77
2019-04-27T18:53:25.265Z,0.87
2019-04-27T18:55:59.416Z,0.60
2019-04-27T18:58:24.849Z,0.80
2019-04-27T19:00:53.770Z,0.83
2019-04-27T19:03:22.833Z,0.70
2019-04-27T19:05:51.769Z,0.70
2019-04-27T19:08:20.692Z,0.77
2019-04-27T19:10:49.681Z,0.80
2019-04-27T19:13:19.219Z,1.10
2019-04-27T19:15:48.817Z,1.10
2019-04-27T19:18:18.841Z,1.10
2019-04-27T19:20:48.264Z,0.90
2019-04-27T19:23:17.364Z,2.50
2019-04-27T19:26:08.842Z,1.20
2019-04-27T19:28:48.132Z,1.20
2019-04-27T19:31:22.713Z,1.10
2019-04-27T19:33:51.937Z,0.77
2019-04-27T19:36:20.957Z,1.20
2019-04-27T19:38:49.975Z,1.47
2019-04-27T19:41:18.894Z,1.03
2019-04-27T19:43:48.856Z,1.33
2019-04-27T19:46:19.953Z,1.27
2019-04-27T19:48:49.964Z,1.23
2019-04-27T19:51:19.187Z,1.07
2019-04-27T19:53:48.061Z,1.40
2019-04-27T19:56:19.300Z,1.40
2019-04-27T19:58:52.123Z,1.40
2019-04-27T20:01:40.212Z,1.70
2019-04-27T20:04:30.579Z,1.17
2019-04-27T20:06:59.637Z,0.80
2019-04-27T20:09:34.765Z,1.10
2019-04-27T20:12:05.298Z,1.10
2019-04-27T20:14:53.476Z,1.63
2019-04-27T20:17:22.597Z,1.53
2019-04-27T20:19:51.699Z,0.90
2019-04-27T20:22:21.226Z,1.00
2019-04-27T20:24:51.577Z,1.30
2019-04-27T20:27:21.176Z,1.33
2019-04-27T20:29:50.680Z,1.60
2019-04-27T20:32:21.396Z,1.93
2019-04-27T20:34:51.302Z,1.60
2019-04-27T20:37:21.025Z,1.20
2019-04-27T20:39:51.506Z,1.27
2019-04-27T20:42:21.101Z,0.80
2019-04-27T20:44:51.596Z,0.60
2019-04-27T20:47:21.512Z,1.10
2019-04-27T20:49:50.518Z,0.90
2019-04-27T20:52:25.409Z,1.00
2019-04-27T20:54:54.370Z,1.30
2019-04-27T20:57:23.342Z,0.83
2019-04-27T20:59:52.397Z,0.90
2019-04-27T21:02:36.751Z,1.33
2019-04-27T21:05:24.593Z,1.13
2019-04-27T21:07:57.208Z,1.20
2019-04-27T21:10:26.210Z,1.23
2019-04-27T21:12:55.237Z,1.20
2019-04-27T21:15:24.231Z,1.33
2019-04-27T21:17:53.189Z,1.00
2019-04-27T21:20:22.177Z,1.63
2019-04-27T21:22:51.519Z,1.10
2019-04-27T21:25:21.751Z,1.50
2019-04-27T21:27:51.374Z,1.10
2019-04-27T21:30:21.340Z,1.13
2019-04-27T21:32:50.813Z,1.00
2019-04-27T21:35:21.165Z,1.10
2019-04-27T21:37:51.185Z,1.43
2019-04-27T21:40:22.034Z,1.30
2019-04-27T21:42:51.351Z,1.53
2019-04-27T21:45:22.063Z,0.93
2019-04-27T21:47:51.938Z,0.93
2019-04-27T21:50:23.310Z,1.10
2019-04-27T21:53:03.373Z,1.37
2019-04-27T21:55:32.374Z,1.07
2019-04-27T21:58:01.540Z,1.23
2019-04-27T22:00:54.609Z,1.87
2019-04-27T22:03:27.557Z,1.10
2019-04-27T22:05:56.552Z,1.03
2019-04-27T22:08:25.552Z,0.90
2019-04-27T22:10:54.571Z,1.10
2019-04-27T22:13:23.515Z,1.27
2019-04-27T22:15:52.452Z,1.13
2019-04-27T22:18:21.522Z,0.90
2019-04-27T22:20:51.182Z,1.17
2019-04-27T22:23:25.895Z,1.20
2019-04-27T22:25:55.202Z,1.53
2019-04-27T22:28:24.197Z,1.00
2019-04-27T22:30:53.137Z,1.37
2019-04-27T22:33:22.139Z,1.17
2019-04-27T22:35:51.792Z,0.90
2019-04-27T22:38:20.873Z,1.30
2019-04-27T22:40:59.602Z,1.07
2019-04-27T22:43:43.142Z,1.00
2019-04-27T22:46:14.566Z,1.03
2019-04-27T22:48:43.776Z,0.93
2019-04-27T22:51:15.807Z,1.10
2019-04-27T22:53:44.818Z,0.83
2019-04-27T22:56:17.342Z,1.20
2019-04-27T22:59:04.280Z,1.00
2019-04-27T23:01:44.501Z,0.93
2019-04-27T23:04:15.539Z,0.80
2019-04-27T23:06:44.397Z,1.20
2019-04-27T23:09:13.685Z,1.00
2019-04-27T23:11:42.681Z,0.77
2019-04-27T23:14:13.919Z,0.87
2019-04-27T23:16:44.990Z,0.83
2019-04-27T23:19:14.016Z,1.13
2019-04-27T23:21:42.989Z,0.80
2019-04-27T23:24:12.007Z,0.90
2019-04-27T23:26:40.931Z,1.17
2019-04-27T23:29:13.668Z,0.90
2019-04-27T23:31:55.542Z,0.70
2019-04-27T23:34:24.469Z,0.93
2019-04-27T23:36:53.489Z,0.73
2019-04-27T23:39:22.396Z,0.83
2019-04-27T23:41:51.471Z,0.80
2019-04-27T23:44:20.784Z,0.70
2019-04-27T23:46:49.729Z,1.00
2019-04-27T23:49:18.819Z,0.80
2019-04-27T23:51:52.907Z,0.93
2019-04-27T23:54:21.890Z,0.80
2019-04-27T23:56:51.875Z,0.80
2019-04-27T23:59:25.147Z,0.93
